Sarajevo, Bosnia and Herzegovina
Current Conditions -  °F | °C
As of 4:00 PM on Tuesday 21 Oct 2014 (Local Time) from LQSA Reporting Station
Broken Clouds Broken Clouds  
Wind Chill: 68°   Ceiling: 7000
Heat Index: 68°   Visibility: 6mi
Dew Point: 52°   Wind: 1mph
Humidity: 56%   Direction: NA
Pressure: 29.88"   Gusts: NA
Location:  43.85°N, 18.38°E
Report Text: LQSA 211400Z VRB01KT 9999 FEW050 BKN070 20/11 Q1012 NOSIG
Loading
Personal Weather Stations






























Interactive Weather Map
Tropical Storm Tracking
New forecast layout! Learn more

10-Day Weather Forecast

Advertisements
Track Severe Weather on mobile